sensor_id;sensor_type;location;lat;lon;timestamp;temperature;humidity
76291;DHT22;65100;46.884;17.410;2023-03-12T00:01:58;2.89;65.96
76291;DHT22;65100;46.884;17.410;2023-03-12T00:04:26;2.99;64.35
76291;DHT22;65100;46.884;17.410;2023-03-12T00:06:51;2.94;64.04
76291;DHT22;65100;46.884;17.410;2023-03-12T00:09:17;2.93;63.85
76291;DHT22;65100;46.884;17.410;2023-03-12T00:11:42;2.97;63.55
76291;DHT22;65100;46.884;17.410;2023-03-12T00:14:08;2.90;62.78
76291;DHT22;65100;46.884;17.410;2023-03-12T00:16:33;2.92;61.91
76291;DHT22;65100;46.884;17.410;2023-03-12T00:18:59;2.92;63.22
76291;DHT22;65100;46.884;17.410;2023-03-12T00:21:25;2.94;62.81
76291;DHT22;65100;46.884;17.410;2023-03-12T00:23:51;2.99;63.27
76291;DHT22;65100;46.884;17.410;2023-03-12T00:26:19;3.04;63.59
76291;DHT22;65100;46.884;17.410;2023-03-12T00:29:05;3.07;63.75
76291;DHT22;65100;46.884;17.410;2023-03-12T00:31:31;3.01;64.35
76291;DHT22;65100;46.884;17.410;2023-03-12T00:33:58;3.03;65.66
76291;DHT22;65100;46.884;17.410;2023-03-12T00:36:27;3.06;64.38
76291;DHT22;65100;46.884;17.410;2023-03-12T00:39:14;3.14;64.31
76291;DHT22;65100;46.884;17.410;2023-03-12T00:41:39;3.14;63.89
76291;DHT22;65100;46.884;17.410;2023-03-12T00:44:05;3.18;63.81
76291;DHT22;65100;46.884;17.410;2023-03-12T00:46:30;3.16;63.83
76291;DHT22;65100;46.884;17.410;2023-03-12T00:48:56;3.11;65.81
76291;DHT22;65100;46.884;17.410;2023-03-12T00:51:21;3.16;67.09
76291;DHT22;65100;46.884;17.410;2023-03-12T00:53:47;3.18;67.02
76291;DHT22;65100;46.884;17.410;2023-03-12T00:56:12;3.20;67.02
76291;DHT22;65100;46.884;17.410;2023-03-12T00:58:38;3.23;66.25
76291;DHT22;65100;46.884;17.410;2023-03-12T01:01:06;3.20;65.99
76291;DHT22;65100;46.884;17.410;2023-03-12T01:03:31;3.21;65.52
76291;DHT22;65100;46.884;17.410;2023-03-12T01:05:57;3.21;65.53
76291;DHT22;65100;46.884;17.410;2023-03-12T01:08:22;3.20;64.80
76291;DHT22;65100;46.884;17.410;2023-03-12T01:10:48;3.17;63.91
76291;DHT22;65100;46.884;17.410;2023-03-12T01:13:13;3.18;63.24
76291;DHT22;65100;46.884;17.410;2023-03-12T01:15:39;3.18;63.70
76291;DHT22;65100;46.884;17.410;2023-03-12T01:18:04;3.21;63.40
76291;DHT22;65100;46.884;17.410;2023-03-12T01:20:30;3.20;63.34
76291;DHT22;65100;46.884;17.410;2023-03-12T01:22:56;3.20;63.30
76291;DHT22;65100;46.884;17.410;2023-03-12T01:25:21;3.14;63.69
76291;DHT22;65100;46.884;17.410;2023-03-12T01:27:46;3.11;63.47
76291;DHT22;65100;46.884;17.410;2023-03-12T01:30:12;3.10;65.56
76291;DHT22;65100;46.884;17.410;2023-03-12T01:32:38;2.97;66.55
76291;DHT22;65100;46.884;17.410;2023-03-12T01:35:04;2.97;67.97
76291;DHT22;65100;46.884;17.410;2023-03-12T01:37:31;2.94;67.58
76291;DHT22;65100;46.884;17.410;2023-03-12T01:39:57;2.83;67.65
76291;DHT22;65100;46.884;17.410;2023-03-12T01:42:22;2.83;68.17
76291;DHT22;65100;46.884;17.410;2023-03-12T01:47:17;2.69;68.38
76291;DHT22;65100;46.884;17.410;2023-03-12T01:49:44;2.66;68.81
76291;DHT22;65100;46.884;17.410;2023-03-12T01:52:13;2.53;68.83
76291;DHT22;65100;46.884;17.410;2023-03-12T01:54:42;2.54;66.37
76291;DHT22;65100;46.884;17.410;2023-03-12T01:57:18;2.53;64.36
76291;DHT22;65100;46.884;17.410;2023-03-12T01:59:49;2.54;63.60
76291;DHT22;65100;46.884;17.410;2023-03-12T02:02:16;2.49;62.97
76291;DHT22;65100;46.884;17.410;2023-03-12T02:04:44;2.43;63.15
76291;DHT22;65100;46.884;17.410;2023-03-12T02:07:15;1.92;65.63
76291;DHT22;65100;46.884;17.410;2023-03-12T02:09:44;1.60;67.67
76291;DHT22;65100;46.884;17.410;2023-03-12T02:12:11;1.20;68.51
76291;DHT22;65100;46.884;17.410;2023-03-12T02:14:37;1.08;69.10
76291;DHT22;65100;46.884;17.410;2023-03-12T02:17:04;0.96;70.93
76291;DHT22;65100;46.884;17.410;2023-03-12T02:22:18;1.67;68.63
76291;DHT22;65100;46.884;17.410;2023-03-12T02:24:47;1.30;69.24
76291;DHT22;65100;46.884;17.410;2023-03-12T02:27:13;1.33;69.96
76291;DHT22;65100;46.884;17.410;2023-03-12T02:29:41;1.23;70.04
76291;DHT22;65100;46.884;17.410;2023-03-12T02:32:09;1.34;69.49
76291;DHT22;65100;46.884;17.410;2023-03-12T02:34:39;1.60;67.86
76291;DHT22;65100;46.884;17.410;2023-03-12T02:37:05;1.62;67.85
76291;DHT22;65100;46.884;17.410;2023-03-12T02:39:30;1.62;67.27
76291;DHT22;65100;46.884;17.410;2023-03-12T02:41:57;1.74;65.31
76291;DHT22;65100;46.884;17.410;2023-03-12T02:44:26;1.84;65.92
76291;DHT22;65100;46.884;17.410;2023-03-12T02:46:55;1.92;65.09
76291;DHT22;65100;46.884;17.410;2023-03-12T02:49:22;2.26;63.69
76291;DHT22;65100;46.884;17.410;2023-03-12T02:51:49;2.40;62.95
76291;DHT22;65100;46.884;17.410;2023-03-12T02:54:17;2.43;62.78
76291;DHT22;65100;46.884;17.410;2023-03-12T02:56:43;2.59;63.95
76291;DHT22;65100;46.884;17.410;2023-03-12T02:59:09;2.54;65.18
76291;DHT22;65100;46.884;17.410;2023-03-12T03:01:35;2.48;62.87
76291;DHT22;65100;46.884;17.410;2023-03-12T03:04:02;2.46;64.78
76291;DHT22;65100;46.884;17.410;2023-03-12T03:06:28;2.40;64.54
76291;DHT22;65100;46.884;17.410;2023-03-12T03:08:57;2.40;62.64
76291;DHT22;65100;46.884;17.410;2023-03-12T03:11:22;2.46;63.47
76291;DHT22;65100;46.884;17.410;2023-03-12T03:13:52;2.46;63.04
76291;DHT22;65100;46.884;17.410;2023-03-12T03:16:18;2.43;64.06
76291;DHT22;65100;46.884;17.410;2023-03-12T03:18:44;2.48;63.67
76291;DHT22;65100;46.884;17.410;2023-03-12T03:21:10;2.40;61.40
76291;DHT22;65100;46.884;17.410;2023-03-12T03:23:41;2.45;63.75
76291;DHT22;65100;46.884;17.410;2023-03-12T03:26:07;2.45;61.16
76291;DHT22;65100;46.884;17.410;2023-03-12T03:28:33;2.46;61.49
76291;DHT22;65100;46.884;17.410;2023-03-12T03:30:58;2.52;62.58
76291;DHT22;65100;46.884;17.410;2023-03-12T03:33:30;2.46;60.17
76291;DHT22;65100;46.884;17.410;2023-03-12T03:35:56;2.48;60.74
76291;DHT22;65100;46.884;17.410;2023-03-12T03:38:24;2.63;61.71
76291;DHT22;65100;46.884;17.410;2023-03-12T03:40:50;2.70;60.92
76291;DHT22;65100;46.884;17.410;2023-03-12T03:43:16;2.53;59.48
76291;DHT22;65100;46.884;17.410;2023-03-12T03:45:41;2.56;61.19
76291;DHT22;65100;46.884;17.410;2023-03-12T03:48:10;2.52;60.51
76291;DHT22;65100;46.884;17.410;2023-03-12T03:50:37;2.66;61.63
76291;DHT22;65100;46.884;17.410;2023-03-12T03:53:03;2.64;60.59
76291;DHT22;65100;46.884;17.410;2023-03-12T03:55:29;2.60;60.65
76291;DHT22;65100;46.884;17.410;2023-03-12T03:57:54;2.63;60.11
76291;DHT22;65100;46.884;17.410;2023-03-12T04:00:20;2.63;60.69
76291;DHT22;65100;46.884;17.410;2023-03-12T04:02:46;2.49;60.88
76291;DHT22;65100;46.884;17.410;2023-03-12T04:05:12;2.38;61.59
76291;DHT22;65100;46.884;17.410;2023-03-12T04:07:37;2.32;61.34
76291;DHT22;65100;46.884;17.410;2023-03-12T04:10:04;2.21;61.75
76291;DHT22;65100;46.884;17.410;2023-03-12T04:12:29;1.88;63.89
76291;DHT22;65100;46.884;17.410;2023-03-12T04:14:55;1.89;63.54
76291;DHT22;65100;46.884;17.410;2023-03-12T04:17:21;1.95;62.40
76291;DHT22;65100;46.884;17.410;2023-03-12T04:19:47;1.84;64.49
76291;DHT22;65100;46.884;17.410;2023-03-12T04:22:12;1.95;62.39
76291;DHT22;65100;46.884;17.410;2023-03-12T04:24:38;1.97;62.87
76291;DHT22;65100;46.884;17.410;2023-03-12T04:27:03;1.62;63.81
76291;DHT22;65100;46.884;17.410;2023-03-12T04:29:29;1.72;63.83
76291;DHT22;65100;46.884;17.410;2023-03-12T04:31:54;1.78;62.63
76291;DHT22;65100;46.884;17.410;2023-03-12T04:34:20;1.74;62.61
76291;DHT22;65100;46.884;17.410;2023-03-12T04:36:46;1.40;63.25
76291;DHT22;65100;46.884;17.410;2023-03-12T04:39:13;1.37;63.96
76291;DHT22;65100;46.884;17.410;2023-03-12T04:41:38;0.92;66.02
76291;DHT22;65100;46.884;17.410;2023-03-12T04:44:04;1.08;65.49
76291;DHT22;65100;46.884;17.410;2023-03-12T04:46:29;0.97;66.50
76291;DHT22;65100;46.884;17.410;2023-03-12T04:48:55;0.83;66.61
76291;DHT22;65100;46.884;17.410;2023-03-12T04:51:23;0.66;68.58
76291;DHT22;65100;46.884;17.410;2023-03-12T04:53:48;0.77;67.52
76291;DHT22;65100;46.884;17.410;2023-03-12T04:56:14;0.66;68.74
76291;DHT22;65100;46.884;17.410;2023-03-12T04:58:39;0.29;70.26
76291;DHT22;65100;46.884;17.410;2023-03-12T05:01:05;0.21;71.15
76291;DHT22;65100;46.884;17.410;2023-03-12T05:03:31;0.35;69.72
76291;DHT22;65100;46.884;17.410;2023-03-12T05:05:57;0.59;69.23
76291;DHT22;65100;46.884;17.410;2023-03-12T05:08:22;0.37;71.01
76291;DHT22;65100;46.884;17.410;2023-03-12T05:10:48;0.41;69.66
76291;DHT22;65100;46.884;17.410;2023-03-12T05:13:19;0.46;69.12
76291;DHT22;65100;46.884;17.410;2023-03-12T05:15:45;0.28;69.63
76291;DHT22;65100;46.884;17.410;2023-03-12T05:18:12;0.05;70.31
76291;DHT22;65100;46.884;17.410;2023-03-12T05:20:38;0.02;72.03
76291;DHT22;65100;46.884;17.410;2023-03-12T05:23:03;0.39;70.72
76291;DHT22;65100;46.884;17.410;2023-03-12T05:25:29;0.92;68.85
76291;DHT22;65100;46.884;17.410;2023-03-12T05:27:54;1.19;66.91
76291;DHT22;65100;46.884;17.410;2023-03-12T05:30:20;0.86;68.51
76291;DHT22;65100;46.884;17.410;2023-03-12T05:32:46;1.24;66.99
76291;DHT22;65100;46.884;17.410;2023-03-12T05:35:11;1.81;66.45
76291;DHT22;65100;46.884;17.410;2023-03-12T05:37:37;2.35;64.45
76291;DHT22;65100;46.884;17.410;2023-03-12T05:40:03;2.69;63.31
76291;DHT22;65100;46.884;17.410;2023-03-12T05:42:29;2.79;62.30
76291;DHT22;65100;46.884;17.410;2023-03-12T05:44:55;2.35;63.54
76291;DHT22;65100;46.884;17.410;2023-03-12T05:47:20;2.70;63.50
76291;DHT22;65100;46.884;17.410;2023-03-12T05:49:46;3.11;63.14
76291;DHT22;65100;46.884;17.410;2023-03-12T05:52:12;3.28;61.55
76291;DHT22;65100;46.884;17.410;2023-03-12T05:54:37;3.07;62.38
76291;DHT22;65100;46.884;17.410;2023-03-12T05:57:03;2.69;64.03
76291;DHT22;65100;46.884;17.410;2023-03-12T05:59:28;3.11;63.52
76291;DHT22;65100;46.884;17.410;2023-03-12T06:01:54;3.64;61.73
76291;DHT22;65100;46.884;17.410;2023-03-12T06:04:20;3.89;62.12
76291;DHT22;65100;46.884;17.410;2023-03-12T06:06:46;4.42;60.76
76291;DHT22;65100;46.884;17.410;2023-03-12T06:09:11;6.15;55.94
76291;DHT22;65100;46.884;17.410;2023-03-12T06:11:37;7.08;53.66
76291;DHT22;65100;46.884;17.410;2023-03-12T06:14:03;8.00;50.44
76291;DHT22;65100;46.884;17.410;2023-03-12T06:16:28;8.87;49.28
76291;DHT22;65100;46.884;17.410;2023-03-12T06:18:59;9.72;45.86
76291;DHT22;65100;46.884;17.410;2023-03-12T06:21:30;10.18;43.91
76291;DHT22;65100;46.884;17.410;2023-03-12T06:23:57;9.40;44.62
76291;DHT22;65100;46.884;17.410;2023-03-12T06:26:22;9.32;42.83
76291;DHT22;65100;46.884;17.410;2023-03-12T06:28:49;9.00;43.44
76291;DHT22;65100;46.884;17.410;2023-03-12T06:31:16;8.80;43.62
76291;DHT22;65100;46.884;17.410;2023-03-12T06:33:42;8.95;43.38
76291;DHT22;65100;46.884;17.410;2023-03-12T06:36:08;9.28;42.40
76291;DHT22;65100;46.884;17.410;2023-03-12T06:38:35;9.49;43.77
76291;DHT22;65100;46.884;17.410;2023-03-12T06:41:06;9.29;44.54
76291;DHT22;65100;46.884;17.410;2023-03-12T06:43:33;9.26;43.85
76291;DHT22;65100;46.884;17.410;2023-03-12T06:46:00;9.15;44.13
76291;DHT22;65100;46.884;17.410;2023-03-12T06:48:27;9.02;43.67
76291;DHT22;65100;46.884;17.410;2023-03-12T06:50:53;8.85;43.30
76291;DHT22;65100;46.884;17.410;2023-03-12T06:53:19;8.81;44.79
76291;DHT22;65100;46.884;17.410;2023-03-12T06:55:45;9.40;44.48
76291;DHT22;65100;46.884;17.410;2023-03-12T06:58:11;9.34;43.22
76291;DHT22;65100;46.884;17.410;2023-03-12T07:00:37;10.03;43.40
76291;DHT22;65100;46.884;17.410;2023-03-12T07:03:03;10.51;40.78
76291;DHT22;65100;46.884;17.410;2023-03-12T07:05:29;10.57;41.41
76291;DHT22;65100;46.884;17.410;2023-03-12T07:07:55;10.10;42.37
76291;DHT22;65100;46.884;17.410;2023-03-12T07:10:20;9.75;43.23
76291;DHT22;65100;46.884;17.410;2023-03-12T07:12:46;9.32;45.15
76291;DHT22;65100;46.884;17.410;2023-03-12T07:15:12;9.26;44.33
76291;DHT22;65100;46.884;17.410;2023-03-12T07:17:37;9.00;42.88
76291;DHT22;65100;46.884;17.410;2023-03-12T07:20:04;9.01;45.19
76291;DHT22;65100;46.884;17.410;2023-03-12T07:22:29;8.89;44.87
76291;DHT22;65100;46.884;17.410;2023-03-12T07:24:54;8.56;45.10
76291;DHT22;65100;46.884;17.410;2023-03-12T07:27:20;8.25;46.37
76291;DHT22;65100;46.884;17.410;2023-03-12T07:29:45;8.36;47.01
76291;DHT22;65100;46.884;17.410;2023-03-12T07:32:11;8.56;44.05
76291;DHT22;65100;46.884;17.410;2023-03-12T07:34:36;8.65;46.69
76291;DHT22;65100;46.884;17.410;2023-03-12T07:37:02;8.33;44.97
76291;DHT22;65100;46.884;17.410;2023-03-12T07:39:28;8.32;47.29
76291;DHT22;65100;46.884;17.410;2023-03-12T07:41:53;8.29;45.35
76291;DHT22;65100;46.884;17.410;2023-03-12T07:44:19;8.48;45.98
76291;DHT22;65100;46.884;17.410;2023-03-12T07:46:44;8.51;47.23
76291;DHT22;65100;46.884;17.410;2023-03-12T07:49:10;8.56;45.66
76291;DHT22;65100;46.884;17.410;2023-03-12T07:51:35;8.65;46.04
76291;DHT22;65100;46.884;17.410;2023-03-12T07:54:01;9.02;47.15
76291;DHT22;65100;46.884;17.410;2023-03-12T07:56:27;9.45;44.17
76291;DHT22;65100;46.884;17.410;2023-03-12T07:58:52;9.43;42.98
76291;DHT22;65100;46.884;17.410;2023-03-12T08:01:18;9.01;41.49
76291;DHT22;65100;46.884;17.410;2023-03-12T08:03:43;8.92;42.80
76291;DHT22;65100;46.884;17.410;2023-03-12T08:06:09;8.88;44.30
76291;DHT22;65100;46.884;17.410;2023-03-12T08:08:34;8.82;45.86
76291;DHT22;65100;46.884;17.410;2023-03-12T08:11:03;8.87;43.46
76291;DHT22;65100;46.884;17.410;2023-03-12T08:13:29;8.78;44.19
76291;DHT22;65100;46.884;17.410;2023-03-12T08:15:54;8.92;43.06
76291;DHT22;65100;46.884;17.410;2023-03-12T08:18:21;9.08;42.90
76291;DHT22;65100;46.884;17.410;2023-03-12T08:20:51;8.85;45.88
76291;DHT22;65100;46.884;17.410;2023-03-12T08:23:18;8.56;45.06
76291;DHT22;65100;46.884;17.410;2023-03-12T08:25:47;8.23;47.01
76291;DHT22;65100;46.884;17.410;2023-03-12T08:28:14;8.00;45.96
76291;DHT22;65100;46.884;17.410;2023-03-12T08:30:48;8.47;45.66
76291;DHT22;65100;46.884;17.410;2023-03-12T08:33:14;8.75;46.12
76291;DHT22;65100;46.884;17.410;2023-03-12T08:35:40;8.80;43.81
76291;DHT22;65100;46.884;17.410;2023-03-12T08:38:05;9.04;43.03
76291;DHT22;65100;46.884;17.410;2023-03-12T08:40:30;8.77;44.05
76291;DHT22;65100;46.884;17.410;2023-03-12T08:42:56;8.32;43.00
76291;DHT22;65100;46.884;17.410;2023-03-12T08:45:21;8.23;42.48
76291;DHT22;65100;46.884;17.410;2023-03-12T08:47:47;8.22;46.39
76291;DHT22;65100;46.884;17.410;2023-03-12T08:50:13;7.90;45.29
76291;DHT22;65100;46.884;17.410;2023-03-12T08:52:41;7.83;45.81
76291;DHT22;65100;46.884;17.410;2023-03-12T08:55:07;7.94;44.66
76291;DHT22;65100;46.884;17.410;2023-03-12T08:57:33;7.94;45.07
76291;DHT22;65100;46.884;17.410;2023-03-12T08:59:59;7.96;44.20
76291;DHT22;65100;46.884;17.410;2023-03-12T09:02:24;8.16;44.88
76291;DHT22;65100;46.884;17.410;2023-03-12T09:04:50;8.06;45.08
76291;DHT22;65100;46.884;17.410;2023-03-12T09:07:15;7.83;44.96
76291;DHT22;65100;46.884;17.410;2023-03-12T09:09:44;7.76;47.09
76291;DHT22;65100;46.884;17.410;2023-03-12T09:12:10;7.73;45.48
76291;DHT22;65100;46.884;17.410;2023-03-12T09:14:36;7.78;44.70
76291;DHT22;65100;46.884;17.410;2023-03-12T09:17:01;8.29;45.84
76291;DHT22;65100;46.884;17.410;2023-03-12T09:19:27;8.91;43.78
76291;DHT22;65100;46.884;17.410;2023-03-12T09:21:52;9.60;43.32
76291;DHT22;65100;46.884;17.410;2023-03-12T09:24:18;10.61;42.74
76291;DHT22;65100;46.884;17.410;2023-03-12T09:26:44;11.52;39.69
76291;DHT22;65100;46.884;17.410;2023-03-12T09:29:09;12.34;35.92
76291;DHT22;65100;46.884;17.410;2023-03-12T09:31:35;13.05;33.88
76291;DHT22;65100;46.884;17.410;2023-03-12T09:34:01;13.36;32.39
76291;DHT22;65100;46.884;17.410;2023-03-12T09:36:26;12.97;33.41
76291;DHT22;65100;46.884;17.410;2023-03-12T09:38:53;11.72;39.11
76291;DHT22;65100;46.884;17.410;2023-03-12T09:41:45;10.38;40.20
76291;DHT22;65100;46.884;17.410;2023-03-12T09:44:34;9.99;39.97
76291;DHT22;65100;46.884;17.410;2023-03-12T09:47:07;9.49;42.96
76291;DHT22;65100;46.884;17.410;2023-03-12T09:49:48;9.04;43.57
76291;DHT22;65100;46.884;17.410;2023-03-12T09:52:18;8.67;42.53
76291;DHT22;65100;46.884;17.410;2023-03-12T09:57:26;8.54;45.51
76291;DHT22;65100;46.884;17.410;2023-03-12T09:59:54;8.50;46.21
76291;DHT22;65100;46.884;17.410;2023-03-12T10:04:50;8.27;44.36
76291;DHT22;65100;46.884;17.410;2023-03-12T10:26:42;8.13;48.06
76291;DHT22;65100;46.884;17.410;2023-03-12T10:29:19;8.16;46.97
76291;DHT22;65100;46.884;17.410;2023-03-12T10:32:14;8.20;47.28
76291;DHT22;65100;46.884;17.410;2023-03-12T10:34:50;8.16;45.75
76291;DHT22;65100;46.884;17.410;2023-03-12T10:37:22;8.17;44.04
76291;DHT22;65100;46.884;17.410;2023-03-12T10:39:49;8.23;46.46
76291;DHT22;65100;46.884;17.410;2023-03-12T10:42:24;8.26;45.74
76291;DHT22;65100;46.884;17.410;2023-03-12T10:44:57;8.26;44.93
76291;DHT22;65100;46.884;17.410;2023-03-12T10:47:37;8.34;46.14
76291;DHT22;65100;46.884;17.410;2023-03-12T10:52:41;8.46;46.34
76291;DHT22;65100;46.884;17.410;2023-03-12T10:55:26;8.63;44.46
76291;DHT22;65100;46.884;17.410;2023-03-12T10:57:54;8.48;46.24
76291;DHT22;65100;46.884;17.410;2023-03-12T11:00:28;8.63;46.79
76291;DHT22;65100;46.884;17.410;2023-03-12T11:03:02;8.60;46.10
76291;DHT22;65100;46.884;17.410;2023-03-12T11:05:44;8.46;44.82
76291;DHT22;65100;46.884;17.410;2023-03-12T11:11:14;8.80;46.67
76291;DHT22;65100;46.884;17.410;2023-03-12T11:14:06;8.77;43.07
76291;DHT22;65100;46.884;17.410;2023-03-12T11:16:32;8.92;44.63
76291;DHT22;65100;46.884;17.410;2023-03-12T11:19:27;8.95;46.13
76291;DHT22;65100;46.884;17.410;2023-03-12T11:22:01;8.97;45.26
76291;DHT22;65100;46.884;17.410;2023-03-12T11:24:27;9.04;45.20
76291;DHT22;65100;46.884;17.410;2023-03-12T11:29:35;8.98;44.61
76291;DHT22;65100;46.884;17.410;2023-03-12T11:34:41;9.07;43.60
76291;DHT22;65100;46.884;17.410;2023-03-12T11:37:12;9.07;42.37
76291;DHT22;65100;46.884;17.410;2023-03-12T12:10:13;9.78;40.16
76291;DHT22;65100;46.884;17.410;2023-03-12T12:20:38;9.92;37.89
76291;DHT22;65100;46.884;17.410;2023-03-12T12:23:26;10.06;41.49
76291;DHT22;65100;46.884;17.410;2023-03-12T12:26:02;10.07;41.40
76291;DHT22;65100;46.884;17.410;2023-03-12T12:39:41;10.04;42.19
76291;DHT22;65100;46.884;17.410;2023-03-12T12:42:20;9.89;40.84
76291;DHT22;65100;46.884;17.410;2023-03-12T12:44:50;9.94;38.39
76291;DHT22;65100;46.884;17.410;2023-03-12T12:47:20;9.92;39.15
76291;DHT22;65100;46.884;17.410;2023-03-12T12:49:53;9.83;39.19
76291;DHT22;65100;46.884;17.410;2023-03-12T12:52:21;9.89;42.01
76291;DHT22;65100;46.884;17.410;2023-03-12T12:57:50;9.86;40.41
76291;DHT22;65100;46.884;17.410;2023-03-12T13:03:09;9.90;40.94
76291;DHT22;65100;46.884;17.410;2023-03-12T13:08:03;10.03;39.08
76291;DHT22;65100;46.884;17.410;2023-03-12T13:12:57;10.20;42.20
76291;DHT22;65100;46.884;17.410;2023-03-12T13:20:44;9.97;38.79
76291;DHT22;65100;46.884;17.410;2023-03-12T13:26:27;10.36;40.67
76291;DHT22;65100;46.884;17.410;2023-03-12T13:28:57;10.41;39.03
76291;DHT22;65100;46.884;17.410;2023-03-12T13:36:21;10.40;38.32
76291;DHT22;65100;46.884;17.410;2023-03-12T13:47:36;10.21;43.21
76291;DHT22;65100;46.884;17.410;2023-03-12T13:52:16;9.70;40.86
76291;DHT22;65100;46.884;17.410;2023-03-12T13:54:45;10.00;43.57
76291;DHT22;65100;46.884;17.410;2023-03-12T13:59:50;10.13;41.96
76291;DHT22;65100;46.884;17.410;2023-03-12T14:02:24;10.32;40.39
76291;DHT22;65100;46.884;17.410;2023-03-12T14:04:51;10.30;42.31
76291;DHT22;65100;46.884;17.410;2023-03-12T14:10:09;10.57;39.86
76291;DHT22;65100;46.884;17.410;2023-03-12T14:15:12;10.37;41.60
76291;DHT22;65100;46.884;17.410;2023-03-12T14:17:42;10.00;42.84
76291;DHT22;65100;46.884;17.410;2023-03-12T14:20:15;9.96;42.52
76291;DHT22;65100;46.884;17.410;2023-03-12T14:22:45;9.97;41.75
76291;DHT22;65100;46.884;17.410;2023-03-12T14:25:25;9.79;40.60
76291;DHT22;65100;46.884;17.410;2023-03-12T14:27:53;10.14;41.83
76291;DHT22;65100;46.884;17.410;2023-03-12T14:30:23;10.21;42.82
76291;DHT22;65100;46.884;17.410;2023-03-12T14:32:56;9.96;43.00
76291;DHT22;65100;46.884;17.410;2023-03-12T14:35:25;9.86;45.64
76291;DHT22;65100;46.884;17.410;2023-03-12T14:45:44;9.58;43.77
76291;DHT22;65100;46.884;17.410;2023-03-12T14:48:09;9.56;45.30
76291;DHT22;65100;46.884;17.410;2023-03-12T14:50:38;9.66;41.97
76291;DHT22;65100;46.884;17.410;2023-03-12T14:53:37;9.82;44.41
76291;DHT22;65100;46.884;17.410;2023-03-12T14:58:33;9.70;42.28
76291;DHT22;65100;46.884;17.410;2023-03-12T15:01:02;9.76;42.17
76291;DHT22;65100;46.884;17.410;2023-03-12T15:03:29;9.82;42.54
76291;DHT22;65100;46.884;17.410;2023-03-12T15:05:55;9.78;43.69
76291;DHT22;65100;46.884;17.410;2023-03-12T15:08:21;9.78;43.82
76291;DHT22;65100;46.884;17.410;2023-03-12T15:10:56;9.65;43.25
76291;DHT22;65100;46.884;17.410;2023-03-12T15:13:23;9.56;44.14
76291;DHT22;65100;46.884;17.410;2023-03-12T15:15:53;9.66;45.82
76291;DHT22;65100;46.884;17.410;2023-03-12T15:18:27;9.82;45.21
76291;DHT22;65100;46.884;17.410;2023-03-12T15:20:55;9.69;42.55
76291;DHT22;65100;46.884;17.410;2023-03-12T15:23:23;9.58;43.91
76291;DHT22;65100;46.884;17.410;2023-03-12T15:31:44;9.46;44.74
76291;DHT22;65100;46.884;17.410;2023-03-12T15:34:12;9.46;42.84
76291;DHT22;65100;46.884;17.410;2023-03-12T15:36:48;9.39;43.81
76291;DHT22;65100;46.884;17.410;2023-03-12T15:39:47;9.42;46.89
76291;DHT22;65100;46.884;17.410;2023-03-12T15:42:09;9.36;46.97
76291;DHT22;65100;46.884;17.410;2023-03-12T15:44:47;9.24;47.10
76291;DHT22;65100;46.884;17.410;2023-03-12T15:47:25;9.25;48.36
76291;DHT22;65100;46.884;17.410;2023-03-12T15:49:57;9.22;48.13
76291;DHT22;65100;46.884;17.410;2023-03-12T15:52:33;9.22;47.68
76291;DHT22;65100;46.884;17.410;2023-03-12T15:57:50;9.07;48.31
76291;DHT22;65100;46.884;17.410;2023-03-12T16:03:03;8.85;46.66
76291;DHT22;65100;46.884;17.410;2023-03-12T16:05:36;8.92;49.23
76291;DHT22;65100;46.884;17.410;2023-03-12T16:08:18;8.85;47.31
76291;DHT22;65100;46.884;17.410;2023-03-12T16:10:46;8.98;49.56
76291;DHT22;65100;46.884;17.410;2023-03-12T16:13:14;8.94;49.52
76291;DHT22;65100;46.884;17.410;2023-03-12T16:15:40;8.95;49.96
76291;DHT22;65100;46.884;17.410;2023-03-12T16:18:12;8.84;48.29
76291;DHT22;65100;46.884;17.410;2023-03-12T16:20:38;8.78;49.48
76291;DHT22;65100;46.884;17.410;2023-03-12T16:23:24;8.89;50.08
76291;DHT22;65100;46.884;17.410;2023-03-12T16:25:52;8.77;50.17
76291;DHT22;65100;46.884;17.410;2023-03-12T16:28:19;8.74;52.27
76291;DHT22;65100;46.884;17.410;2023-03-12T16:30:45;8.78;49.93
76291;DHT22;65100;46.884;17.410;2023-03-12T16:33:14;8.67;51.70
76291;DHT22;65100;46.884;17.410;2023-03-12T16:35:40;8.71;50.96
76291;DHT22;65100;46.884;17.410;2023-03-12T16:38:06;8.77;50.39
76291;DHT22;65100;46.884;17.410;2023-03-12T16:40:33;8.72;48.85
76291;DHT22;65100;46.884;17.410;2023-03-12T16:43:01;8.64;49.14
76291;DHT22;65100;46.884;17.410;2023-03-12T16:45:28;8.61;49.55
76291;DHT22;65100;46.884;17.410;2023-03-12T16:47:58;8.58;50.74
76291;DHT22;65100;46.884;17.410;2023-03-12T16:50:24;8.63;51.34
76291;DHT22;65100;46.884;17.410;2023-03-12T16:52:49;8.54;50.69
76291;DHT22;65100;46.884;17.410;2023-03-12T16:55:17;8.43;50.38
76291;DHT22;65100;46.884;17.410;2023-03-12T16:58:01;8.30;50.22
76291;DHT22;65100;46.884;17.410;2023-03-12T17:00:28;8.25;49.29
76291;DHT22;65100;46.884;17.410;2023-03-12T17:02:55;8.16;50.35
76291;DHT22;65100;46.884;17.410;2023-03-12T17:05:25;7.93;49.51
76291;DHT22;65100;46.884;17.410;2023-03-12T17:07:51;8.02;49.86
76291;DHT22;65100;46.884;17.410;2023-03-12T17:10:17;7.99;50.58
76291;DHT22;65100;46.884;17.410;2023-03-12T17:12:42;7.90;51.47
76291;DHT22;65100;46.884;17.410;2023-03-12T17:15:34;7.58;51.54
76291;DHT22;65100;46.884;17.410;2023-03-12T17:18:00;7.63;50.91
76291;DHT22;65100;46.884;17.410;2023-03-12T17:20:29;7.39;51.91
76291;DHT22;65100;46.884;17.410;2023-03-12T17:23:01;7.31;52.37
76291;DHT22;65100;46.884;17.410;2023-03-12T17:25:29;7.32;52.43
76291;DHT22;65100;46.884;17.410;2023-03-12T17:27:55;7.24;53.70
76291;DHT22;65100;46.884;17.410;2023-03-12T17:30:22;7.01;54.73
76291;DHT22;65100;46.884;17.410;2023-03-12T17:32:49;7.19;55.40
76291;DHT22;65100;46.884;17.410;2023-03-12T17:35:15;7.35;55.08
76291;DHT22;65100;46.884;17.410;2023-03-12T17:37:41;7.21;56.37
76291;DHT22;65100;46.884;17.410;2023-03-12T17:40:07;7.09;56.45
76291;DHT22;65100;46.884;17.410;2023-03-12T17:42:34;6.94;57.31
76291;DHT22;65100;46.884;17.410;2023-03-12T17:45:01;6.77;57.68
76291;DHT22;65100;46.884;17.410;2023-03-12T17:47:27;6.73;57.98
76291;DHT22;65100;46.884;17.410;2023-03-12T17:49:53;6.54;59.12
76291;DHT22;65100;46.884;17.410;2023-03-12T17:52:18;6.51;58.89
76291;DHT22;65100;46.884;17.410;2023-03-12T17:54:44;6.47;59.60
76291;DHT22;65100;46.884;17.410;2023-03-12T17:57:09;6.41;58.86
76291;DHT22;65100;46.884;17.410;2023-03-12T17:59:35;6.36;57.97
76291;DHT22;65100;46.884;17.410;2023-03-12T18:02:00;6.22;60.61
76291;DHT22;65100;46.884;17.410;2023-03-12T18:04:26;6.16;60.45
76291;DHT22;65100;46.884;17.410;2023-03-12T18:06:51;6.02;60.47
76291;DHT22;65100;46.884;17.410;2023-03-12T18:09:18;5.89;60.65
76291;DHT22;65100;46.884;17.410;2023-03-12T18:11:43;5.69;59.82